Time;durP1;ratioP1;P1;durP2;ratioP2;P2;SDS_P1;SDS_P2;PMS_P1;PMS_P2;Temp;Humidity;BMP_temperature;BMP_pressure;BME280_temperature;BME280_humidity;BME280_pressure;Samples;Min_cycle;Max_cycle;Signal;HPM_P1;HPM_P2
2023/01/11 00:01:01;;;;;;;4.53;3.80;;;8.20;99.90;;;;;;5049963;28;20057;-68
2023/01/11 00:03:28;;;;;;;3.92;3.38;;;8.20;99.90;;;;;;5049859;28;20041;-66
2023/01/11 00:05:56;;;;;;;5.38;3.55;;;8.20;99.90;;;;;;5046006;28;20393;-68
2023/01/11 00:08:23;;;;;;;4.72;3.95;;;8.30;99.90;;;;;;5050913;28;20045;-68
2023/01/11 00:10:49;;;;;;;4.30;3.90;;;8.30;99.90;;;;;;5049840;28;20037;-68
2023/01/11 00:13:15;;;;;;;4.95;3.67;;;8.30;99.90;;;;;;5050947;28;20553;-68
2023/01/11 00:15:41;;;;;;;4.22;3.50;;;8.40;99.90;;;;;;5050205;28;20167;-68
2023/01/11 00:18:06;;;;;;;4.53;3.70;;;8.40;99.90;;;;;;5051145;28;20056;-68
2023/01/11 00:20:32;;;;;;;4.30;3.90;;;8.40;99.90;;;;;;5050754;28;20493;-68
2023/01/11 00:22:58;;;;;;;4.07;3.67;;;8.40;99.90;;;;;;5050946;28;20048;-69
2023/01/11 00:25:23;;;;;;;5.15;4.13;;;8.50;99.90;;;;;;5050125;28;20033;-68
2023/01/11 00:27:49;;;;;;;4.00;3.60;;;8.50;99.90;;;;;;5050955;28;20041;-69
2023/01/11 00:30:16;;;;;;;4.65;3.90;;;8.50;99.90;;;;;;5050924;28;20037;-68
2023/01/11 00:32:42;;;;;;;4.47;3.47;;;8.50;99.90;;;;;;5048899;28;20048;-68
2023/01/11 00:35:08;;;;;;;5.38;4.18;;;8.60;99.90;;;;;;5048571;28;20501;-68
2023/01/11 00:37:34;;;;;;;4.30;3.38;;;8.60;99.90;;;;;;5050768;28;20039;-69
2023/01/11 00:39:59;;;;;;;6.13;3.90;;;8.60;99.90;;;;;;5050785;28;20045;-68
2023/01/11 00:47:56;;;;;;;4.43;3.55;;;8.60;99.90;;;;;;5051365;28;20049;-68
2023/01/11 00:50:28;;;;;;;4.97;3.47;;;8.70;99.90;;;;;;5054991;28;20041;-68
2023/01/11 00:52:53;;;;;;;3.55;3.25;;;8.60;99.90;;;;;;5054675;28;20087;-68
2023/01/11 00:55:19;;;;;;;5.10;3.85;;;8.70;99.90;;;;;;5054082;28;20041;-68
2023/01/11 00:57:45;;;;;;;4.88;3.47;;;8.70;99.90;;;;;;5054588;28;20047;-68
2023/01/11 01:00:11;;;;;;;3.90;3.50;;;8.70;99.90;;;;;;5054564;28;20124;-68
2023/01/11 01:02:37;;;;;;;4.07;3.45;;;8.80;99.90;;;;;;5054431;28;20041;-68
2023/01/11 01:05:02;;;;;;;4.65;3.30;;;8.80;99.90;;;;;;5053695;28;20049;-68
2023/01/11 01:07:28;;;;;;;5.78;3.60;;;8.80;99.90;;;;;;5054253;28;20049;-68
2023/01/11 01:09:53;;;;;;;3.83;3.45;;;8.80;99.90;;;;;;5054775;28;20041;-68
2023/01/11 01:15:03;;;;;;;5.65;3.42;;;8.80;99.90;;;;;;5053800;28;20474;-68
2023/01/11 01:17:29;;;;;;;5.10;3.33;;;8.80;99.90;;;;;;5054578;28;20080;-68
2023/01/11 01:19:54;;;;;;;4.15;3.78;;;8.90;99.90;;;;;;5054376;28;20045;-68
2023/01/11 01:22:20;;;;;;;3.85;3.28;;;8.90;99.90;;;;;;5054253;28;20051;-68
2023/01/11 01:24:45;;;;;;;3.83;3.53;;;8.90;99.90;;;;;;5053187;28;20037;-68
2023/01/11 01:27:16;;;;;;;4.03;3.63;;;8.90;99.90;;;;;;5054290;28;20445;-68
2023/01/11 01:29:42;;;;;;;6.95;4.00;;;9.00;99.90;;;;;;5054207;28;20128;-68
2023/01/11 01:32:08;;;;;;;6.63;3.53;;;8.90;99.90;;;;;;5054344;28;20104;-68
2023/01/11 01:34:36;;;;;;;3.85;3.53;;;8.90;99.90;;;;;;5053210;28;20041;-68
2023/01/11 01:37:03;;;;;;;4.38;3.90;;;9.00;99.90;;;;;;5053890;28;20505;-68
2023/01/11 01:39:29;;;;;;;5.72;3.60;;;9.00;99.90;;;;;;5054095;28;20036;-68
2023/01/11 01:41:54;;;;;;;6.07;3.55;;;9.00;99.90;;;;;;5054120;28;20071;-68
2023/01/11 01:44:58;;;;;;;4.40;3.55;;;9.10;99.90;;;;;;5052849;28;20088;-68
2023/01/11 01:47:36;;;;;;;4.15;3.55;;;9.10;99.90;;;;;;5054049;28;20044;-68
2023/01/11 01:50:14;;;;;;;7.88;4.00;;;9.10;99.90;;;;;;5052294;28;20094;-67
2023/01/11 01:52:42;;;;;;;6.07;3.97;;;9.10;99.90;;;;;;5053895;28;20045;-68
2023/01/11 01:55:15;;;;;;;3.80;3.50;;;9.10;99.90;;;;;;5052969;28;20044;-68
2023/01/11 01:57:43;;;;;;;4.78;4.00;;;9.20;99.90;;;;;;5053585;28;20119;-68
2023/01/11 02:00:10;;;;;;;4.93;3.78;;;9.20;99.90;;;;;;5053458;28;20037;-68
2023/01/11 02:02:36;;;;;;;4.95;3.75;;;9.20;99.90;;;;;;5053186;28;20044;-68
2023/01/11 02:05:02;;;;;;;6.32;4.07;;;9.20;99.90;;;;;;5052804;28;20049;-68
2023/01/11 02:07:32;;;;;;;4.55;4.10;;;9.20;99.90;;;;;;5053510;28;20064;-68
2023/01/11 02:10:01;;;;;;;5.53;4.00;;;9.20;99.90;;;;;;5053539;28;20175;-68
2023/01/11 02:12:30;;;;;;;4.68;3.45;;;9.30;99.90;;;;;;5053382;28;20063;-69
2023/01/11 02:14:58;;;;;;;4.72;3.40;;;9.30;99.90;;;;;;5052436;28;20134;-68
2023/01/11 02:17:23;;;;;;;5.47;4.13;;;9.40;99.90;;;;;;5051817;28;20041;-69
2023/01/11 02:20:27;;;;;;;5.57;3.45;;;9.40;99.90;;;;;;5053174;28;20436;-69
2023/01/11 02:23:05;;;;;;;4.07;3.10;;;9.40;99.90;;;;;;5052798;28;20528;-69
2023/01/11 02:25:52;;;;;;;6.10;3.30;;;9.40;99.90;;;;;;5052487;28;20052;-70
2023/01/11 02:28:36;;;;;;;4.55;3.22;;;9.50;99.90;;;;;;5053207;28;20091;-69
2023/01/11 02:31:11;;;;;;;6.18;3.50;;;9.40;99.90;;;;;;5053181;28;20071;-68
2023/01/11 02:34:17;;;;;;;4.45;3.38;;;9.50;99.90;;;;;;5052963;28;20397;-70
2023/01/11 02:37:22;;;;;;;3.45;3.13;;;9.50;99.90;;;;;;5052863;28;20036;-69
2023/01/11 02:40:06;;;;;;;6.85;3.60;;;9.50;99.90;;;;;;5052241;28;20107;-70
2023/01/11 02:45:35;;;;;;;3.00;2.70;;;9.60;99.90;;;;;;5051983;28;20100;-68
2023/01/11 02:48:11;;;;;;;5.05;3.20;;;9.60;99.90;;;;;;5052825;28;20040;-69
2023/01/11 02:50:46;;;;;;;2.80;2.47;;;9.70;99.90;;;;;;5051239;28;20045;-69
2023/01/11 02:53:36;;;;;;;5.45;3.47;;;9.70;99.90;;;;;;5052486;28;20072;-69
2023/01/11 02:56:07;;;;;;;3.95;2.83;;;9.70;99.90;;;;;;5041767;28;20057;-68
2023/01/11 02:58:36;;;;;;;4.32;2.85;;;9.70;99.90;;;;;;5052525;28;20145;-69
2023/01/11 03:01:03;;;;;;;3.15;2.55;;;9.70;99.90;;;;;;5052666;28;20068;-69
2023/01/11 03:03:29;;;;;;;5.03;2.78;;;9.70;99.90;;;;;;5052350;28;20041;-70
2023/01/11 03:06:00;;;;;;;2.72;2.13;;;9.70;99.90;;;;;;5050369;28;20047;-70
2023/01/11 03:08:39;;;;;;;3.72;2.40;;;9.80;99.90;;;;;;5052290;28;20611;-70
2023/01/11 03:12:50;;;;;;;2.53;2.30;;;9.80;99.90;;;;;;5050233;28;20048;-69
2023/01/11 03:14:15;;;;;;;4.22;2.28;;;9.80;99.90;;;;;;5051135;28;20052;-70
2023/01/11 03:16:57;;;;;;;3.10;2.70;;;9.80;99.90;;;;;;5050692;28;20052;-70
2023/01/11 03:20:06;;;;;;;3.60;2.30;;;9.80;99.90;;;;;;5051126;28;20033;-69
2023/01/11 03:22:53;;;;;;;2.63;2.20;;;9.90;99.90;;;;;;5009637;28;20116;-70
2023/01/11 03:25:38;;;;;;;2.65;1.92;;;9.90;99.90;;;;;;4992875;28;20062;-68
2023/01/11 03:28:16;;;;;;;2.05;1.80;;;9.90;99.90;;;;;;5009548;28;20041;-69
2023/01/11 03:30:51;;;;;;;2.78;2.10;;;9.90;99.90;;;;;;5009575;28;20065;-69
2023/01/11 03:33:20;;;;;;;3.35;2.45;;;9.90;99.90;;;;;;5009498;28;20049;-69
2023/01/11 03:36:07;;;;;;;2.58;2.10;;;9.90;99.90;;;;;;5008848;28;20085;-69
2023/01/11 03:38:46;;;;;;;2.08;1.83;;;9.90;99.90;;;;;;5009482;28;20064;-68
2023/01/11 03:41:18;;;;;;;3.60;2.38;;;9.90;99.90;;;;;;5009567;28;20057;-68
2023/01/11 03:43:47;;;;;;;2.28;2.10;;;9.90;99.90;;;;;;5008513;28;20057;-69
2023/01/11 03:46:18;;;;;;;2.70;2.38;;;9.90;99.90;;;;;;5009446;28;20121;-69
2023/01/11 03:48:51;;;;;;;3.67;2.23;;;9.90;99.90;;;;;;5009271;28;20122;-69
2023/01/11 03:51:22;;;;;;;2.13;2.00;;;9.90;99.90;;;;;;5009355;28;20426;-68
2023/01/11 03:53:49;;;;;;;1.90;1.77;;;9.90;99.90;;;;;;5008378;28;20469;-69
2023/01/11 03:56:19;;;;;;;2.25;2.05;;;10.00;99.90;;;;;;5028303;28;20497;-69
2023/01/11 03:58:44;;;;;;;2.70;2.17;;;10.00;99.90;;;;;;5051215;28;20037;-69
2023/01/11 04:01:11;;;;;;;2.25;2.08;;;10.00;99.90;;;;;;5051469;28;20366;-69
2023/01/11 04:03:36;;;;;;;2.22;2.03;;;10.00;99.90;;;;;;5051150;28;20037;-69
2023/01/11 04:06:02;;;;;;;3.40;2.38;;;10.00;99.90;;;;;;5050573;28;20037;-68
2023/01/11 04:08:29;;;;;;;2.30;2.05;;;10.00;99.90;;;;;;5051392;28;20076;-69
2023/01/11 04:10:55;;;;;;;3.35;1.95;;;10.00;99.90;;;;;;5051140;28;20032;-68
2023/01/11 04:13:21;;;;;;;4.18;2.20;;;10.00;99.90;;;;;;5051057;28;20041;-69
2023/01/11 04:15:47;;;;;;;2.40;2.20;;;10.00;99.90;;;;;;5050416;28;20124;-68
2023/01/11 04:18:12;;;;;;;2.17;2.00;;;10.00;99.90;;;;;;5051073;28;20048;-68
2023/01/11 04:20:39;;;;;;;4.35;2.03;;;10.10;99.90;;;;;;5050776;28;20048;-68
2023/01/11 04:23:07;;;;;;;1.98;1.85;;;10.10;99.90;;;;;;5050192;28;20083;-69
2023/01/11 04:25:32;;;;;;;1.85;1.70;;;10.10;99.90;;;;;;5050476;28;20045;-69
2023/01/11 04:27:59;;;;;;;3.05;1.90;;;10.10;99.90;;;;;;5050997;28;20041;-68
2023/01/11 04:30:25;;;;;;;1.85;1.75;;;10.10;99.90;;;;;;5050839;28;20032;-68
2023/01/11 04:32:51;;;;;;;1.45;1.35;;;10.10;99.90;;;;;;5050774;28;20032;-68
2023/01/11 04:35:16;;;;;;;3.33;1.90;;;10.10;99.90;;;;;;5050301;28;20094;-68
2023/01/11 04:37:42;;;;;;;1.80;1.70;;;10.10;99.90;;;;;;5050891;28;20044;-69
2023/01/11 04:40:09;;;;;;;2.42;1.70;;;10.10;99.90;;;;;;5051127;28;20037;-69
2023/01/11 04:42:35;;;;;;;1.90;1.80;;;10.10;99.90;;;;;;5050438;28;20143;-68
2023/01/11 04:45:04;;;;;;;1.40;1.30;;;10.10;99.90;;;;;;5050003;28;20604;-68
2023/01/11 04:47:29;;;;;;;1.40;1.38;;;10.20;99.90;;;;;;5050805;28;20041;-67
2023/01/11 04:49:55;;;;;;;1.90;1.80;;;10.20;99.90;;;;;;5050881;28;20040;-67
2023/01/11 04:52:21;;;;;;;1.85;1.75;;;10.20;99.90;;;;;;5050782;28;20051;-67
2023/01/11 04:54:47;;;;;;;2.13;2.00;;;10.20;99.90;;;;;;5049961;28;20048;-66
2023/01/11 04:57:15;;;;;;;1.80;1.70;;;10.20;99.90;;;;;;5050732;28;20053;-66
2023/01/11 04:59:40;;;;;;;1.98;1.88;;;10.20;99.90;;;;;;5050487;28;20116;-66
2023/01/11 05:02:06;;;;;;;2.78;1.80;;;10.20;99.90;;;;;;5050438;28;20137;-66
2023/01/11 05:04:32;;;;;;;2.53;2.17;;;10.20;99.90;;;;;;5049726;28;20041;-67
2023/01/11 05:06:57;;;;;;;2.42;1.92;;;10.20;99.90;;;;;;5050754;28;20033;-67
2023/01/11 05:09:23;;;;;;;4.05;2.22;;;10.30;99.90;;;;;;5050513;28;20041;-66
2023/01/11 05:11:48;;;;;;;5.07;2.33;;;10.30;99.90;;;;;;5050346;28;20037;-67
2023/01/11 05:14:15;;;;;;;5.50;2.45;;;10.30;99.90;;;;;;5049691;28;20166;-66
2023/01/11 05:16:41;;;;;;;4.45;2.33;;;10.30;99.90;;;;;;5050604;28;20040;-66
2023/01/11 05:19:09;;;;;;;4.25;2.97;;;10.30;99.90;;;;;;5050541;28;20147;-66
2023/01/11 05:21:40;;;;;;;5.15;3.03;;;10.30;99.90;;;;;;5050664;28;20044;-67
2023/01/11 05:24:10;;;;;;;4.90;3.40;;;10.30;99.90;;;;;;5049672;28;20056;-67
2023/01/11 05:26:38;;;;;;;8.50;3.40;;;10.40;99.90;;;;;;5050531;28;20033;-67
2023/01/11 05:29:06;;;;;;;6.70;3.25;;;10.40;99.90;;;;;;5050603;28;20033;-66
2023/01/11 05:31:33;;;;;;;7.40;3.50;;;10.40;99.90;;;;;;5048843;28;20537;-66
2023/01/11 05:33:59;;;;;;;7.60;3.47;;;10.40;99.90;;;;;;5050428;28;20060;-67
2023/01/11 05:36:26;;;;;;;12.25;3.80;;;10.40;99.90;;;;;;5054011;28;20032;-66
2023/01/11 05:38:53;;;;;;;8.00;3.63;;;10.40;99.90;;;;;;5053975;28;20040;-66
2023/01/11 05:41:22;;;;;;;8.63;3.30;;;10.40;99.90;;;;;;5054038;28;20051;-68
2023/01/11 05:46:35;;;;;;;7.97;3.20;;;10.40;99.90;;;;;;5053941;28;20049;-68
2023/01/11 05:49:02;;;;;;;8.32;3.60;;;10.40;99.90;;;;;;5053769;28;20131;-67
2023/01/11 05:51:31;;;;;;;9.95;4.72;;;10.40;99.90;;;;;;5053622;28;20386;-67
2023/01/11 05:53:58;;;;;;;8.23;3.15;;;10.40;99.90;;;;;;5052904;28;20421;-66
2023/01/11 05:56:24;;;;;;;13.68;3.45;;;10.40;99.90;;;;;;5053434;28;20509;-67
2023/01/11 05:58:50;;;;;;;17.25;3.70;;;10.40;99.90;;;;;;5053606;28;20037;-67
2023/01/11 06:01:17;;;;;;;12.27;3.08;;;10.40;99.90;;;;;;5053512;28;20056;-66
2023/01/11 06:03:44;;;;;;;12.77;3.20;;;10.40;99.90;;;;;;5052945;28;20055;-66
2023/01/11 06:06:10;;;;;;;11.95;3.38;;;10.40;99.90;;;;;;5053330;28;20083;-66
2023/01/11 06:08:35;;;;;;;15.25;3.53;;;10.40;99.90;;;;;;5053538;28;20433;-66
2023/01/11 06:11:01;;;;;;;11.57;3.03;;;10.40;99.90;;;;;;5053267;28;20048;-66
2023/01/11 06:13:27;;;;;;;13.60;3.10;;;10.40;99.90;;;;;;5051842;28;20049;-66
2023/01/11 06:16:01;;;;;;;13.52;2.58;;;10.40;99.90;;;;;;5052715;28;20041;-66
2023/01/11 06:18:28;;;;;;;16.00;2.78;;;10.40;99.90;;;;;;5053160;28;20069;-66
2023/01/11 06:20:54;;;;;;;9.80;2.22;;;10.30;99.90;;;;;;5053130;28;20493;-66
2023/01/11 06:23:21;;;;;;;16.90;2.80;;;10.40;99.90;;;;;;5053145;28;20367;-66
2023/01/11 06:25:47;;;;;;;15.70;2.83;;;10.30;99.90;;;;;;5052561;28;20044;-66
2023/01/11 06:28:12;;;;;;;10.35;2.65;;;10.30;99.90;;;;;;5053195;28;20045;-66
2023/01/11 06:30:38;;;;;;;15.20;2.50;;;10.30;99.90;;;;;;5053247;28;20488;-66
2023/01/11 06:33:05;;;;;;;15.60;3.72;;;10.30;99.90;;;;;;5051406;28;20044;-66
2023/01/11 06:35:33;;;;;;;14.48;3.30;;;10.30;99.90;;;;;;5052387;28;20143;-66
2023/01/11 06:37:58;;;;;;;19.73;2.75;;;10.30;99.90;;;;;;5052869;28;20036;-66
2023/01/11 06:40:24;;;;;;;20.77;3.03;;;10.30;99.90;;;;;;5051439;28;20055;-66
2023/01/11 06:42:50;;;;;;;11.02;2.47;;;10.30;99.90;;;;;;5052953;28;20080;-66
2023/01/11 06:45:16;;;;;;;9.70;2.63;;;10.20;99.90;;;;;;5050725;28;20040;-66
2023/01/11 06:47:41;;;;;;;19.52;2.35;;;10.30;99.90;;;;;;5052904;28;20049;-66
2023/01/11 06:50:07;;;;;;;9.82;2.15;;;10.20;99.90;;;;;;5052517;28;20041;-66
2023/01/11 06:52:33;;;;;;;7.18;3.13;;;10.20;99.90;;;;;;5052514;28;20041;-66
2023/01/11 06:54:58;;;;;;;17.80;3.10;;;10.20;99.90;;;;;;5051773;28;20400;-66
2023/01/11 06:57:24;;;;;;;21.25;3.10;;;10.20;99.90;;;;;;5052729;28;20457;-66
2023/01/11 06:59:49;;;;;;;17.38;2.70;;;10.20;99.90;;;;;;5052433;28;20505;-66
2023/01/11 07:02:15;;;;;;;19.40;3.63;;;10.20;99.90;;;;;;5052395;28;20401;-66
2023/01/11 07:04:41;;;;;;;13.63;3.33;;;10.20;99.90;;;;;;5051428;28;20780;-66
2023/01/11 07:07:06;;;;;;;19.63;2.95;;;10.20;99.90;;;;;;5052092;28;20047;-66
2023/01/11 07:09:32;;;;;;;13.35;2.47;;;10.20;99.90;;;;;;5052416;28;20204;-66
2023/01/11 07:11:57;;;;;;;15.10;2.78;;;10.20;99.90;;;;;;5052218;28;20072;-66
2023/01/11 07:14:23;;;;;;;16.40;3.65;;;10.20;99.90;;;;;;5051465;28;20052;-66
2023/01/11 07:16:49;;;;;;;21.30;3.03;;;10.20;99.90;;;;;;5051863;28;20505;-66
2023/01/11 07:19:16;;;;;;;24.65;3.10;;;10.20;99.90;;;;;;5052258;28;20121;-66
2023/01/11 07:21:42;;;;;;;15.57;3.80;;;10.20;99.90;;;;;;5051959;28;20137;-66
2023/01/11 07:24:08;;;;;;;8.85;3.67;;;10.20;99.90;;;;;;5051290;28;20123;-66
2023/01/11 07:26:39;;;;;;;13.07;3.53;;;10.20;99.90;;;;;;5052212;28;20086;-66
2023/01/11 07:29:05;;;;;;;18.85;3.35;;;10.10;99.90;;;;;;5051802;28;20489;-66
2023/01/11 07:31:31;;;;;;;15.57;3.10;;;10.20;99.90;;;;;;5052073;28;20037;-66
2023/01/11 07:33:57;;;;;;;15.88;3.33;;;10.20;99.90;;;;;;5050923;28;20048;-66
2023/01/11 07:36:22;;;;;;;15.60;3.28;;;10.20;99.90;;;;;;5051144;28;20037;-69
2023/01/11 07:38:48;;;;;;;17.23;3.75;;;10.10;99.90;;;;;;5053849;28;20029;-69
2023/01/11 07:43:57;;;;;;;23.02;4.85;;;10.20;99.90;;;;;;5050644;28;20048;-65
2023/01/11 07:46:23;;;;;;;17.95;4.07;;;10.20;99.90;;;;;;5051162;28;20041;-65
2023/01/11 07:48:48;;;;;;;16.52;3.95;;;10.20;99.90;;;;;;5050367;28;20048;-65
2023/01/11 07:51:16;;;;;;;19.05;2.85;;;10.20;99.90;;;;;;5051752;28;20041;-65
2023/01/11 07:53:42;;;;;;;25.20;3.65;;;10.20;99.90;;;;;;5051064;28;20048;-65
2023/01/11 07:56:07;;;;;;;19.35;3.88;;;10.20;99.90;;;;;;5051227;28;20069;-65
2023/01/11 07:58:33;;;;;;;10.32;3.40;;;10.20;99.90;;;;;;5051356;28;20041;-65
2023/01/11 08:00:59;;;;;;;18.17;3.38;;;10.20;99.90;;;;;;5051381;28;20072;-65
2023/01/11 08:03:24;;;;;;;16.38;4.88;;;10.20;99.90;;;;;;5045974;28;20033;-65
2023/01/11 08:05:51;;;;;;;21.50;4.20;;;10.20;99.90;;;;;;5040545;28;20037;-65
2023/01/11 08:08:16;;;;;;;14.45;3.53;;;10.20;99.90;;;;;;5044119;28;20033;-66
2023/01/11 08:10:42;;;;;;;13.73;3.50;;;10.20;99.90;;;;;;5051309;28;20025;-65
2023/01/11 08:15:59;;;;;;;17.70;4.05;;;10.20;99.90;;;;;;5049440;28;20041;-66
2023/01/11 08:18:25;;;;;;;23.67;5.03;;;10.10;99.90;;;;;;5051224;28;20037;-66
2023/01/11 08:20:52;;;;;;;13.55;3.60;;;10.10;99.90;;;;;;5051014;28;20741;-65
2023/01/11 08:23:18;;;;;;;14.38;2.53;;;10.10;99.90;;;;;;5051088;28;20037;-65
2023/01/11 08:25:44;;;;;;;11.77;2.05;;;10.10;99.90;;;;;;5049032;28;20055;-65
2023/01/11 08:28:10;;;;;;;11.10;2.08;;;10.00;99.90;;;;;;5050887;28;20063;-65
2023/01/11 08:30:37;;;;;;;8.73;2.38;;;10.00;99.90;;;;;;5050650;28;20037;-65
2023/01/11 08:33:04;;;;;;;11.57;2.53;;;10.00;99.90;;;;;;5050877;28;20029;-65
2023/01/11 08:35:35;;;;;;;10.93;3.90;;;9.90;99.90;;;;;;5050037;28;20224;-65
2023/01/11 08:38:00;;;;;;;9.68;2.55;;;9.90;99.90;;;;;;5051010;28;20037;-65
2023/01/11 08:40:26;;;;;;;18.88;3.47;;;9.90;99.90;;;;;;5050878;28;20047;-65
2023/01/11 08:42:56;;;;;;;19.88;4.82;;;9.90;99.90;;;;;;5050464;28;20049;-65
2023/01/11 08:45:21;;;;;;;13.85;3.95;;;9.90;99.90;;;;;;5050156;28;20098;-65
2023/01/11 08:47:49;;;;;;;15.43;4.32;;;9.80;99.90;;;;;;5050769;28;20041;-65
2023/01/11 08:50:16;;;;;;;12.02;2.95;;;9.80;99.90;;;;;;5050536;28;20505;-65
2023/01/11 08:52:42;;;;;;;9.75;2.35;;;9.80;99.90;;;;;;5050612;28;20116;-65
2023/01/11 08:55:08;;;;;;;9.88;3.10;;;9.70;99.90;;;;;;5050139;28;20049;-66
2023/01/11 08:57:35;;;;;;;11.07;3.10;;;9.80;99.90;;;;;;5050487;28;20076;-65
2023/01/11 09:00:03;;;;;;;11.77;3.35;;;9.70;99.90;;;;;;5050481;28;20574;-65
2023/01/11 09:02:28;;;;;;;12.00;3.28;;;9.60;99.90;;;;;;5050752;28;20168;-65
2023/01/11 09:04:54;;;;;;;15.80;3.42;;;9.60;99.90;;;;;;5048406;28;20508;-65
2023/01/11 09:07:19;;;;;;;20.83;4.75;;;9.60;99.90;;;;;;5050739;28;20040;-65
2023/01/11 09:09:46;;;;;;;18.15;3.60;;;9.60;99.90;;;;;;5053956;28;20041;-65
2023/01/11 09:12:13;;;;;;;13.45;2.70;;;9.60;99.90;;;;;;5054239;28;20052;-65
2023/01/11 09:14:40;;;;;;;17.83;3.38;;;9.60;99.90;;;;;;5053845;28;20202;-66
2023/01/11 09:17:05;;;;;;;11.98;2.40;;;9.60;99.90;;;;;;5054644;28;20098;-65
2023/01/11 09:19:32;;;;;;;18.13;3.45;;;9.60;99.90;;;;;;5054407;28;20048;-65
2023/01/11 09:22:00;;;;;;;15.85;2.60;;;9.60;99.90;;;;;;5054519;28;20041;-65
2023/01/11 09:24:26;;;;;;;10.75;2.92;;;9.70;99.90;;;;;;5053644;28;20044;-65
2023/01/11 09:26:52;;;;;;;14.10;3.75;;;9.70;99.90;;;;;;5054399;28;20474;-65
2023/01/11 09:29:18;;;;;;;41.53;9.90;;;9.70;99.90;;;;;;5054336;28;20104;-65
2023/01/11 09:31:44;;;;;;;13.35;3.67;;;9.70;99.90;;;;;;5054418;28;20035;-67
2023/01/11 09:34:11;;;;;;;16.13;3.03;;;9.60;99.90;;;;;;5053461;28;20452;-67
2023/01/11 09:36:39;;;;;;;9.30;2.13;;;9.60;99.90;;;;;;5054103;28;20417;-67
2023/01/11 09:39:11;;;;;;;7.85;2.08;;;9.60;99.90;;;;;;5054133;28;20033;-67
2023/01/11 09:41:49;;;;;;;11.88;2.30;;;9.60;99.90;;;;;;5054175;28;20120;-67
2023/01/11 09:44:21;;;;;;;10.18;3.17;;;9.60;99.90;;;;;;5053248;28;20044;-67
2023/01/11 09:46:51;;;;;;;9.23;2.65;;;9.60;99.90;;;;;;5053997;28;20082;-67
2023/01/11 09:49:22;;;;;;;14.73;3.33;;;9.60;99.90;;;;;;5053996;28;20080;-67
2023/01/11 09:51:49;;;;;;;13.32;2.63;;;9.60;99.90;;;;;;5053751;28;20124;-67
2023/01/11 09:54:20;;;;;;;17.95;2.70;;;9.50;99.90;;;;;;5053020;28;20116;-67
2023/01/11 09:56:56;;;;;;;14.20;2.47;;;9.50;99.90;;;;;;5052369;28;20049;-67
2023/01/11 10:00:15;;;;;;;13.45;3.35;;;9.50;99.90;;;;;;5053452;28;20045;-67
2023/01/11 10:03:26;;;;;;;7.88;2.05;;;9.50;99.90;;;;;;5028377;28;20446;-67
2023/01/11 10:06:31;;;;;;;12.32;2.35;;;9.50;99.90;;;;;;5029972;28;20054;-67
2023/01/11 10:09:04;;;;;;;21.00;2.90;;;9.40;99.90;;;;;;4937034;29;20061;-67
2023/01/11 10:11:57;;;;;;;9.20;2.55;;;9.50;99.90;;;;;;5020823;28;20119;-67
2023/01/11 10:14:52;;;;;;;12.80;2.90;;;9.50;99.90;;;;;;5030180;28;20405;-67
2023/01/11 10:17:37;;;;;;;17.52;2.75;;;9.40;99.90;;;;;;5030767;28;20566;-67
2023/01/11 10:20:11;;;;;;;16.40;2.75;;;9.40;99.90;;;;;;5030614;28;20682;-66
2023/01/11 10:22:43;;;;;;;5.18;2.30;;;9.40;99.90;;;;;;5030407;28;20442;-65
2023/01/11 10:25:17;;;;;;;14.48;2.72;;;9.90;99.90;;;;;;5029854;28;20100;-69
2023/01/11 10:27:55;;;;;;;11.23;2.53;;;9.90;99.90;;;;;;5030569;28;20048;-67
2023/01/11 10:39:12;;;;;;;16.65;2.45;;;9.90;99.90;;;;;;5033197;28;20091;-66
2023/01/11 10:42:00;;;;;;;11.63;2.85;;;10.00;99.90;;;;;;5032909;28;20044;-66
2023/01/11 10:44:39;;;;;;;16.75;2.58;;;9.90;99.90;;;;;;5030703;28;20077;-67
2023/01/11 10:47:12;;;;;;;14.63;3.30;;;9.90;99.90;;;;;;5032942;28;20041;-66
2023/01/11 10:49:59;;;;;;;14.45;3.60;;;10.00;99.90;;;;;;5032879;28;20539;-67
2023/01/11 10:52:40;;;;;;;10.48;2.92;;;10.00;99.90;;;;;;5032746;28;20125;-66
2023/01/11 10:55:42;;;;;;;11.55;3.10;;;10.00;99.90;;;;;;5032130;28;20075;-66
2023/01/11 10:58:26;;;;;;;10.90;2.45;;;10.00;99.90;;;;;;5029191;28;20092;-67
2023/01/11 11:01:16;;;;;;;17.52;3.05;;;10.00;99.90;;;;;;5032820;28;20405;-66
2023/01/11 11:03:57;;;;;;;8.90;2.90;;;10.00;99.90;;;;;;5031988;28;20771;-67
2023/01/11 11:07:04;;;;;;;12.95;3.80;;;10.10;99.90;;;;;;5032488;28;20129;-66
2023/01/11 11:09:49;;;;;;;8.82;3.17;;;10.00;99.90;;;;;;5032482;28;20480;-66
2023/01/11 11:12:27;;;;;;;13.30;3.28;;;10.00;99.90;;;;;;5032502;28;20116;-66
2023/01/11 11:14:57;;;;;;;14.73;3.67;;;10.10;99.90;;;;;;5031455;28;20053;-66
2023/01/11 11:17:24;;;;;;;12.38;3.40;;;10.10;99.90;;;;;;5032068;28;20041;-66
2023/01/11 11:19:51;;;;;;;12.45;3.67;;;10.10;99.90;;;;;;5031844;28;20041;-66
2023/01/11 11:22:18;;;;;;;18.77;3.47;;;10.10;99.90;;;;;;5032021;28;20071;-66
2023/01/11 11:24:57;;;;;;;14.18;3.70;;;10.10;99.90;;;;;;5031121;28;20080;-66
2023/01/11 11:27:28;;;;;;;12.07;2.83;;;10.10;99.90;;;;;;5031909;28;20482;-66
2023/01/11 11:29:55;;;;;;;13.87;2.70;;;10.10;99.90;;;;;;5031954;28;20129;-66
2023/01/11 11:32:36;;;;;;;17.85;3.60;;;10.10;99.90;;;;;;5031358;28;20548;-66
2023/01/11 11:35:02;;;;;;;7.70;2.60;;;10.20;99.90;;;;;;5031079;28;20041;-66
2023/01/11 11:37:33;;;;;;;14.10;3.08;;;10.20;99.90;;;;;;5031755;28;20049;-66
2023/01/11 11:39:58;;;;;;;10.60;2.72;;;10.20;99.90;;;;;;5031802;28;20063;-66
2023/01/11 11:42:24;;;;;;;9.48;2.67;;;10.20;99.90;;;;;;5031684;28;20124;-66
2023/01/11 11:45:14;;;;;;;14.30;3.65;;;10.20;99.90;;;;;;5030988;28;20132;-66
2023/01/11 11:47:42;;;;;;;10.93;2.58;;;10.20;99.90;;;;;;5028598;28;20056;-66
2023/01/11 11:50:20;;;;;;;14.88;2.33;;;10.30;99.90;;;;;;5031651;28;20112;-68
2023/01/11 11:53:02;;;;;;;17.48;4.30;;;10.20;99.90;;;;;;5031324;28;20041;-66
2023/01/11 11:55:30;;;;;;;;;;;10.30;99.90;;;;;;5031533;28;20120;-66
2023/01/11 11:57:58;;;;;;;11.88;2.13;;;10.20;99.90;;;;;;5031552;28;20054;-66
2023/01/11 12:00:51;;;;;;;11.07;2.83;;;10.30;99.90;;;;;;5040624;28;20510;-66
2023/01/11 12:03:24;;;;;;;12.13;3.03;;;10.30;99.90;;;;;;5055698;28;20098;-66
2023/01/11 12:06:02;;;;;;;15.13;3.10;;;10.20;99.90;;;;;;5050252;28;20116;-66
2023/01/11 12:08:30;;;;;;;11.05;2.45;;;10.20;99.90;;;;;;5058543;28;20068;-66
2023/01/11 12:11:02;;;;;;;8.18;2.10;;;10.20;99.90;;;;;;5057407;28;20033;-66
2023/01/11 12:13:37;;;;;;;13.00;2.70;;;10.20;99.90;;;;;;5059499;28;20033;-66
2023/01/11 12:16:06;;;;;;;14.13;2.38;;;10.20;99.90;;;;;;5059276;28;20044;-66
2023/01/11 12:18:41;;;;;;;19.02;2.65;;;10.20;99.90;;;;;;5057488;28;20517;-66
2023/01/11 12:21:22;;;;;;;16.20;2.40;;;10.20;99.90;;;;;;5059742;28;20052;-66
2023/01/11 12:24:09;;;;;;;17.25;2.65;;;10.20;99.90;;;;;;5055154;28;20452;-66
2023/01/11 12:26:41;;;;;;;14.88;2.92;;;10.20;99.90;;;;;;5051152;28;20080;-66
2023/01/11 12:29:17;;;;;;;11.88;2.60;;;10.20;99.90;;;;;;5051005;28;20080;-66
2023/01/11 12:32:07;;;;;;;11.25;3.08;;;10.20;99.90;;;;;;5050831;28;20516;-66
2023/01/11 12:34:39;;;;;;;10.23;2.42;;;10.10;99.90;;;;;;5050105;28;20045;-66
2023/01/11 12:37:24;;;;;;;18.50;2.53;;;10.10;99.90;;;;;;5050850;28;20514;-66
2023/01/11 12:40:06;;;;;;;13.55;3.25;;;10.10;99.90;;;;;;5050975;28;20041;-66
2023/01/11 12:42:50;;;;;;;15.98;2.72;;;10.10;99.90;;;;;;5050130;28;20045;-66
2023/01/11 12:45:42;;;;;;;15.55;2.95;;;10.10;99.90;;;;;;5048433;28;20405;-66
2023/01/11 12:48:25;;;;;;;14.45;2.47;;;10.10;99.90;;;;;;5050883;28;20025;-66
2023/01/11 12:51:15;;;;;;;12.57;2.78;;;10.10;99.90;;;;;;5050601;28;20040;-66
2023/01/11 12:54:02;;;;;;;15.38;3.38;;;10.20;99.90;;;;;;5050496;28;20047;-66
2023/01/11 12:56:49;;;;;;;19.05;3.22;;;10.20;99.90;;;;;;5050739;28;20124;-66
2023/01/11 12:59:33;;;;;;;10.85;2.65;;;10.20;99.90;;;;;;5050543;28;20041;-66
2023/01/11 13:02:50;;;;;;;12.20;2.85;;;10.20;99.90;;;;;;5049466;28;20138;-66
2023/01/11 13:05:34;;;;;;;8.23;2.30;;;10.20;99.90;;;;;;5049928;28;20390;-66
2023/01/11 13:08:26;;;;;;;10.48;2.33;;;10.20;99.90;;;;;;5050770;28;20106;-66
2023/01/11 13:10:54;;;;;;;12.43;3.00;;;10.10;99.90;;;;;;5050760;28;20076;-66
2023/01/11 13:13:41;;;;;;;17.13;2.75;;;10.10;99.90;;;;;;5050388;28;20123;-66
2023/01/11 13:16:19;;;;;;;10.75;2.53;;;10.10;99.90;;;;;;5050112;28;20409;-66
2023/01/11 13:19:17;;;;;;;7.03;2.13;;;10.10;99.90;;;;;;5050321;28;20485;-66
2023/01/11 13:21:52;;;;;;;12.52;2.55;;;10.10;99.90;;;;;;5045127;28;20053;-66
2023/01/11 13:24:26;;;;;;;11.38;2.58;;;10.20;99.90;;;;;;5049382;28;20556;-66
2023/01/11 13:26:56;;;;;;;12.07;2.58;;;10.20;99.90;;;;;;5050496;28;20041;-66
2023/01/11 13:29:32;;;;;;;17.17;3.30;;;10.20;99.90;;;;;;5049026;28;20123;-66
2023/01/11 13:32:02;;;;;;;18.52;3.10;;;10.20;99.90;;;;;;5050614;28;20049;-69
2023/01/11 13:34:54;;;;;;;12.70;3.08;;;10.20;99.90;;;;;;5049256;28;20569;-67
2023/01/11 13:37:35;;;;;;;19.35;3.50;;;10.30;99.90;;;;;;5050604;28;20417;-66